Time;durP1;ratioP1;P1;durP2;ratioP2;P2;SDS_P1;SDS_P2;PMS_P1;PMS_P2;Temp;Humidity;BMP_temperature;BMP_pressure;BME280_temperature;BME280_humidity;BME280_pressure;Samples;Min_cycle;Max_cycle;Signal;HPM_P1;HPM_P2
2022/01/20 00:00:00;;;;;;;17.52;3.42;;;5.00;99.90;;;;;;4992483;28;20491;-49
2022/01/20 00:02:27;;;;;;;14.98;2.40;;;4.90;99.90;;;;;;4975926;28;20054;-51
2022/01/20 00:05:08;;;;;;;16.52;2.38;;;4.90;99.90;;;;;;4993511;28;20054;-52
2022/01/20 00:07:59;;;;;;;18.42;2.35;;;4.80;99.90;;;;;;4993179;28;20062;-52
2022/01/20 00:26:30;;;;;;;16.42;2.45;;;4.60;99.90;;;;;;4993558;28;20441;-48
2022/01/20 00:28:59;;;;;;;15.10;1.70;;;4.50;99.90;;;;;;4976002;28;20065;-49
2022/01/20 00:31:36;;;;;;;14.98;2.05;;;4.50;99.90;;;;;;4992511;28;20042;-49
2022/01/20 00:39:18;;;;;;;12.25;1.70;;;4.60;99.90;;;;;;4993127;28;20470;-48
2022/01/20 00:41:43;;;;;;;13.77;2.78;;;4.70;99.90;;;;;;4991799;28;20113;-48
2022/01/20 00:44:09;;;;;;;7.95;1.30;;;4.60;99.90;;;;;;4992164;28;20100;-51
2022/01/20 00:46:34;;;;;;;9.93;1.65;;;4.70;99.90;;;;;;4992283;28;20042;-48
2022/01/20 00:49:00;;;;;;;11.48;1.80;;;4.70;99.90;;;;;;4992770;28;20483;-48
2022/01/20 00:51:25;;;;;;;10.43;1.60;;;4.70;99.90;;;;;;4992746;28;20054;-49
2022/01/20 00:53:51;;;;;;;9.80;1.60;;;4.70;99.90;;;;;;4993135;28;20046;-49
2022/01/20 00:56:17;;;;;;;12.18;1.98;;;4.70;99.90;;;;;;4992763;28;20038;-48
2022/01/20 00:58:42;;;;;;;12.98;1.48;;;4.60;99.90;;;;;;4991870;28;20065;-52
2022/01/20 01:01:08;;;;;;;10.93;1.55;;;4.60;99.90;;;;;;4992910;28;20042;-49
2022/01/20 01:03:33;;;;;;;13.77;1.85;;;4.60;99.90;;;;;;4992646;28;20035;-53
2022/01/20 01:06:14;;;;;;;13.55;2.35;;;4.60;99.90;;;;;;4992530;28;20046;-49
2022/01/20 01:08:40;;;;;;;13.48;1.58;;;4.70;99.90;;;;;;4992779;28;20043;-48
2022/01/20 01:11:06;;;;;;;21.92;2.10;;;4.70;99.90;;;;;;4991881;28;20533;-49
2022/01/20 01:13:31;;;;;;;16.90;2.40;;;4.80;99.90;;;;;;4991684;28;20077;-52
2022/01/20 01:15:57;;;;;;;15.32;2.45;;;4.80;99.90;;;;;;5022493;23;20128;-50
2022/01/20 01:23:39;;;;;;;13.07;1.95;;;4.90;99.90;;;;;;5011690;28;20042;-49
2022/01/20 01:26:08;;;;;;;10.68;1.77;;;5.00;99.90;;;;;;5005715;28;20038;-52
2022/01/20 01:28:35;;;;;;;7.25;1.55;;;5.00;99.90;;;;;;4992099;28;20038;-49
2022/01/20 01:31:29;;;;;;;6.75;1.42;;;5.00;99.90;;;;;;4992310;28;20121;-50
2022/01/20 01:33:58;;;;;;;6.10;1.17;;;5.00;99.90;;;;;;4991954;28;20070;-49
2022/01/20 01:36:27;;;;;;;7.20;1.27;;;4.90;99.90;;;;;;4992113;28;20042;-49
2022/01/20 01:38:53;;;;;;;3.78;1.02;;;4.90;99.90;;;;;;4992240;28;20097;-49
2022/01/20 01:41:35;;;;;;;9.05;1.40;;;4.80;99.90;;;;;;4999150;28;20613;-52
2022/01/20 01:44:06;;;;;;;6.28;1.00;;;4.70;99.90;;;;;;4991127;28;20034;-49
2022/01/20 01:46:32;;;;;;;7.63;0.73;;;4.70;99.90;;;;;;4992108;28;20046;-49
2022/01/20 01:48:58;;;;;;;8.07;1.27;;;4.70;99.90;;;;;;4992142;28;20042;-51
2022/01/20 01:51:24;;;;;;;5.85;0.90;;;4.60;99.90;;;;;;4992369;28;20042;-49
2022/01/20 01:53:50;;;;;;;4.65;1.00;;;4.60;99.90;;;;;;4992163;28;20408;-50
2022/01/20 01:56:15;;;;;;;10.45;1.17;;;4.60;99.90;;;;;;4991633;28;20038;-50
2022/01/20 01:58:41;;;;;;;8.20;1.35;;;4.60;99.90;;;;;;4991831;28;20038;-49
2022/01/20 02:01:07;;;;;;;6.72;1.23;;;4.60;99.90;;;;;;4991934;28;20494;-49
2022/01/20 02:03:42;;;;;;;7.85;1.27;;;4.60;99.90;;;;;;4992064;28;20441;-49
2022/01/20 02:08:43;;;;;;;6.57;1.10;;;4.50;99.90;;;;;;4991756;28;20042;-49
2022/01/20 02:19:26;;;;;;;8.70;1.50;;;4.60;99.90;;;;;;4992044;28;20049;-49
2022/01/20 02:21:54;;;;;;;6.57;1.20;;;4.60;99.90;;;;;;4991831;28;20042;-52
2022/01/20 02:24:21;;;;;;;10.40;1.67;;;4.60;99.90;;;;;;4993913;28;20073;-49
2022/01/20 02:26:46;;;;;;;10.07;1.50;;;4.60;99.90;;;;;;4996475;28;20042;-50
2022/01/20 02:29:12;;;;;;;11.50;1.30;;;4.70;99.90;;;;;;4995231;28;20650;-49
2022/01/20 02:31:39;;;;;;;6.13;1.20;;;4.60;99.90;;;;;;4995548;28;20418;-50
2022/01/20 02:34:07;;;;;;;5.90;1.20;;;4.60;99.90;;;;;;4995270;28;20085;-49
2022/01/20 02:36:35;;;;;;;9.38;1.35;;;4.60;99.90;;;;;;5009568;28;20049;-52
2022/01/20 02:39:09;;;;;;;10.05;1.30;;;4.60;99.90;;;;;;5005869;28;20088;-52
2022/01/20 02:47:12;;;;;;;8.63;1.42;;;4.50;99.90;;;;;;4995013;28;20053;-49
2022/01/20 02:49:37;;;;;;;8.82;1.40;;;4.50;99.90;;;;;;4995188;28;20046;-49
2022/01/20 02:52:04;;;;;;;8.13;1.40;;;4.50;99.90;;;;;;4995393;28;20050;-49
2022/01/20 02:54:29;;;;;;;14.57;1.77;;;4.50;99.90;;;;;;4994886;28;20046;-52
2022/01/20 02:56:55;;;;;;;8.48;1.40;;;4.50;99.90;;;;;;4994493;28;20042;-49
2022/01/20 02:59:20;;;;;;;11.80;2.08;;;4.50;99.90;;;;;;4994751;28;20498;-49
2022/01/20 03:01:46;;;;;;;10.02;1.20;;;4.50;99.90;;;;;;4994911;28;20042;-52
2022/01/20 03:04:11;;;;;;;6.80;1.30;;;4.50;99.90;;;;;;4975548;28;20045;-49
2022/01/20 03:06:38;;;;;;;8.38;1.50;;;4.50;99.90;;;;;;4987300;28;20031;-49
2022/01/20 03:09:04;;;;;;;8.27;1.40;;;4.60;99.90;;;;;;4994638;28;20038;-50
2022/01/20 03:11:30;;;;;;;8.35;1.33;;;4.60;99.90;;;;;;4994913;28;20042;-49
2022/01/20 03:13:55;;;;;;;6.68;1.50;;;4.70;99.90;;;;;;4994552;28;20684;-49
2022/01/20 03:16:21;;;;;;;9.98;1.40;;;4.60;99.90;;;;;;4976987;28;20049;-49
2022/01/20 03:18:47;;;;;;;9.45;1.77;;;4.50;99.90;;;;;;4994986;28;20038;-49
2022/01/20 03:21:12;;;;;;;9.25;1.60;;;4.50;99.90;;;;;;4994032;28;20051;-51
2022/01/20 03:23:38;;;;;;;13.05;2.05;;;4.40;99.90;;;;;;4992116;28;20081;-49
2022/01/20 03:26:03;;;;;;;16.08;2.00;;;4.30;99.90;;;;;;4981407;28;20495;-49
2022/01/20 03:28:29;;;;;;;9.75;1.80;;;4.30;99.90;;;;;;4985366;28;20494;-49
2022/01/20 03:30:54;;;;;;;9.93;1.48;;;4.30;99.90;;;;;;4993996;28;20046;-52
2022/01/20 03:33:20;;;;;;;12.15;2.00;;;4.30;99.90;;;;;;4994383;28;20045;-52
2022/01/20 03:35:45;;;;;;;17.95;1.92;;;4.20;99.90;;;;;;4993176;28;20042;-49
2022/01/20 03:38:11;;;;;;;15.45;2.22;;;4.20;99.90;;;;;;4994412;28;20038;-49
2022/01/20 03:40:37;;;;;;;12.88;2.15;;;4.20;99.90;;;;;;4994051;28;20065;-51
2022/01/20 03:43:03;;;;;;;19.08;2.58;;;4.20;99.90;;;;;;4993585;28;20502;-52
2022/01/20 03:45:28;;;;;;;28.70;3.42;;;4.10;99.90;;;;;;4994408;28;20043;-49
2022/01/20 03:47:59;;;;;;;26.17;3.35;;;4.10;99.90;;;;;;4976796;28;20046;-49
2022/01/20 03:53:09;;;;;;;14.73;2.42;;;4.10;99.90;;;;;;4993238;28;20057;-49
2022/01/20 03:55:34;;;;;;;17.77;2.67;;;4.10;99.90;;;;;;4993492;28;20042;-51
2022/01/20 03:58:00;;;;;;;17.27;2.58;;;4.10;99.90;;;;;;4994333;28;20085;-50
2022/01/20 04:00:25;;;;;;;19.02;2.63;;;4.10;99.90;;;;;;4994169;28;20046;-50
2022/01/20 04:02:51;;;;;;;20.58;2.83;;;4.10;99.90;;;;;;4993587;28;20070;-49
2022/01/20 04:05:16;;;;;;;17.85;3.38;;;4.10;99.90;;;;;;4993292;28;20085;-49
2022/01/20 04:07:42;;;;;;;19.30;3.72;;;4.10;99.90;;;;;;4994077;28;20041;-49
2022/01/20 04:10:08;;;;;;;20.88;2.80;;;4.10;99.90;;;;;;4993191;28;20514;-51
2022/01/20 04:12:33;;;;;;;18.50;2.90;;;4.00;99.90;;;;;;4993350;28;20046;-52
2022/01/20 04:15:06;;;;;;;17.15;2.95;;;4.00;99.90;;;;;;4993806;28;20066;-49
2022/01/20 04:17:32;;;;;;;23.00;3.55;;;4.60;99.90;;;;;;4993858;28;20048;-52
2022/01/20 04:19:58;;;;;;;15.20;3.20;;;4.10;99.90;;;;;;4993417;28;20042;-49
2022/01/20 04:22:26;;;;;;;23.95;3.63;;;4.10;99.90;;;;;;4993492;28;20038;-49
2022/01/20 04:24:52;;;;;;;24.05;3.85;;;4.10;99.90;;;;;;4991948;28;20039;-52
2022/01/20 04:27:17;;;;;;;24.98;3.65;;;4.10;99.90;;;;;;4995846;28;20056;-49
2022/01/20 04:29:43;;;;;;;22.17;3.75;;;4.10;99.90;;;;;;5004753;28;20038;-49
2022/01/20 04:32:09;;;;;;;20.38;3.80;;;4.10;99.90;;;;;;4987214;28;20125;-49
2022/01/20 04:34:34;;;;;;;21.08;4.22;;;4.10;99.90;;;;;;4980745;28;20054;-52
2022/01/20 04:37:03;;;;;;;20.13;3.13;;;4.10;99.90;;;;;;5000053;28;20510;-49
2022/01/20 04:39:32;;;;;;;20.75;2.92;;;4.10;99.90;;;;;;5002972;28;20042;-49
2022/01/20 04:41:57;;;;;;;31.98;3.65;;;4.10;99.90;;;;;;5013046;28;20041;-49
2022/01/20 04:47:14;;;;;;;23.00;4.05;;;4.10;99.90;;;;;;5002675;28;20494;-52
2022/01/20 04:57:52;;;;;;;17.17;2.50;;;4.10;99.90;;;;;;4993007;28;20116;-49
2022/01/20 05:00:17;;;;;;;26.50;3.33;;;4.00;99.90;;;;;;4968178;28;20494;-49
2022/01/20 05:02:43;;;;;;;21.15;2.92;;;4.10;99.90;;;;;;4992905;28;20474;-52
2022/01/20 05:05:09;;;;;;;15.38;2.83;;;4.10;99.90;;;;;;4974933;28;20379;-49
2022/01/20 05:07:35;;;;;;;16.63;2.85;;;4.10;99.90;;;;;;4992432;28;20042;-49
2022/01/20 05:10:05;;;;;;;21.95;3.13;;;4.10;99.90;;;;;;4992191;28;20035;-49
2022/01/20 05:12:59;;;;;;;25.27;2.60;;;4.00;99.90;;;;;;4992833;28;20061;-49
2022/01/20 05:15:16;;;;;;;18.13;2.97;;;4.00;99.90;;;;;;4991970;28;20050;-48
2022/01/20 05:17:42;;;;;;;19.77;2.88;;;4.00;99.90;;;;;;4992369;28;20103;-49
2022/01/20 05:20:08;;;;;;;22.70;2.72;;;4.00;99.90;;;;;;4991997;28;20042;-52
2022/01/20 05:22:33;;;;;;;13.57;2.58;;;3.90;99.90;;;;;;4992516;28;20081;-51
2022/01/20 05:24:59;;;;;;;15.25;2.53;;;4.00;99.90;;;;;;4990005;28;20085;-49
2022/01/20 05:27:25;;;;;;;15.57;2.15;;;4.00;99.90;;;;;;4992115;28;20066;-48
2022/01/20 05:29:50;;;;;;;16.15;2.42;;;3.90;99.90;;;;;;4992451;28;20041;-49
2022/01/20 05:32:16;;;;;;;17.92;2.40;;;3.80;99.90;;;;;;4992450;28;20050;-53
2022/01/20 05:34:41;;;;;;;18.33;2.28;;;3.80;99.90;;;;;;5002759;28;20038;-49
2022/01/20 05:37:07;;;;;;;14.25;2.17;;;3.70;99.90;;;;;;4992296;28;20046;-48
2022/01/20 05:39:32;;;;;;;9.55;1.98;;;3.70;99.90;;;;;;4992470;28;20421;-48
2022/01/20 05:41:58;;;;;;;13.20;2.00;;;3.60;99.90;;;;;;4991792;28;20459;-51
2022/01/20 05:44:24;;;;;;;9.27;2.05;;;3.60;99.90;;;;;;4992154;28;20042;-48
2022/01/20 05:46:52;;;;;;;10.55;1.65;;;3.60;99.90;;;;;;4991557;28;20038;-48
2022/01/20 05:49:23;;;;;;;11.25;1.88;;;3.50;99.90;;;;;;4974373;28;20056;-54
2022/01/20 05:51:52;;;;;;;10.60;1.90;;;3.50;99.90;;;;;;4991244;28;20387;-49
2022/01/20 05:54:18;;;;;;;16.27;2.40;;;3.50;99.90;;;;;;4987227;28;20034;-49
2022/01/20 05:56:44;;;;;;;13.50;2.58;;;3.40;99.90;;;;;;4990928;28;20104;-49
2022/01/20 05:59:10;;;;;;;11.90;2.33;;;3.30;99.90;;;;;;4994139;28;20490;-49
2022/01/20 06:01:38;;;;;;;18.05;2.08;;;3.30;99.90;;;;;;4996063;28;20042;-49
2022/01/20 06:04:05;;;;;;;11.30;2.17;;;3.30;99.90;;;;;;4995420;28;20042;-49
2022/01/20 06:06:31;;;;;;;11.88;2.15;;;3.20;99.90;;;;;;4996120;28;20034;-49
2022/01/20 06:08:57;;;;;;;10.75;2.20;;;3.20;99.90;;;;;;4995543;28;20045;-50
2022/01/20 06:11:22;;;;;;;12.38;2.35;;;3.20;99.90;;;;;;4995982;28;20046;-48
2022/01/20 06:13:48;;;;;;;18.08;2.67;;;3.30;99.90;;;;;;4996125;28;20126;-49
2022/01/20 06:16:14;;;;;;;19.65;3.08;;;3.20;99.90;;;;;;4977124;28;20042;-49
2022/01/20 06:18:40;;;;;;;19.33;2.40;;;3.20;99.90;;;;;;4990881;28;21383;-49
2022/01/20 06:21:05;;;;;;;15.50;2.08;;;3.30;99.90;;;;;;4991956;28;20392;-51
2022/01/20 06:23:31;;;;;;;13.63;2.63;;;3.30;99.90;;;;;;4995031;28;20038;-49
2022/01/20 06:25:57;;;;;;;14.18;2.13;;;3.30;99.90;;;;;;4995343;28;20073;-49
2022/01/20 06:28:22;;;;;;;16.75;2.35;;;3.30;99.90;;;;;;4994726;28;20034;-49
2022/01/20 06:30:49;;;;;;;20.83;2.70;;;3.30;99.90;;;;;;4995648;28;20045;-49
2022/01/20 06:33:15;;;;;;;15.18;2.85;;;3.30;99.90;;;;;;4995541;28;20119;-48
2022/01/20 06:35:41;;;;;;;15.15;2.75;;;3.30;99.90;;;;;;4995530;28;20042;-49
2022/01/20 06:38:06;;;;;;;17.05;2.08;;;3.20;99.90;;;;;;4995494;28;20613;-49
2022/01/20 06:40:33;;;;;;;16.52;2.15;;;3.20;99.90;;;;;;4995037;28;20121;-49
2022/01/20 06:42:59;;;;;;;12.63;2.42;;;3.20;99.90;;;;;;4977712;28;20403;-48
2022/01/20 06:45:25;;;;;;;15.55;2.55;;;3.20;99.90;;;;;;4995386;28;20122;-49
2022/01/20 06:47:51;;;;;;;22.15;2.97;;;3.30;99.90;;;;;;4995454;28;20034;-48
2022/01/20 06:50:17;;;;;;;17.13;2.70;;;3.30;99.90;;;;;;4995232;28;20483;-49
2022/01/20 06:52:43;;;;;;;12.90;1.90;;;3.20;99.90;;;;;;4995235;28;20034;-49
2022/01/20 06:55:11;;;;;;;10.68;1.90;;;3.20;99.90;;;;;;4994053;28;20505;-48
2022/01/20 06:57:38;;;;;;;11.93;2.00;;;3.20;99.90;;;;;;4993739;28;20050;-49
2022/01/20 07:00:11;;;;;;;13.38;2.00;;;3.10;99.90;;;;;;4994561;28;20052;-52
2022/01/20 07:02:36;;;;;;;12.50;2.00;;;3.00;99.90;;;;;;4995114;28;20117;-50
2022/01/20 07:05:03;;;;;;;13.20;2.22;;;2.90;99.90;;;;;;4994980;28;20109;-48
2022/01/20 07:07:30;;;;;;;15.02;2.50;;;2.80;99.90;;;;;;4993889;28;20042;-50
2022/01/20 07:09:56;;;;;;;10.50;1.83;;;2.80;99.90;;;;;;4993721;28;20038;-48
2022/01/20 07:12:22;;;;;;;10.18;1.90;;;2.80;99.90;;;;;;4977465;28;20046;-49
2022/01/20 07:14:48;;;;;;;15.85;1.77;;;2.80;99.90;;;;;;4994703;28;20081;-49
2022/01/20 07:17:13;;;;;;;11.10;1.70;;;2.80;99.90;;;;;;5060445;22;20136;-52
2022/01/20 07:19:39;;;;;;;14.38;2.00;;;2.70;99.90;;;;;;4997161;28;20034;-52
2022/01/20 07:22:04;;;;;;;14.50;2.15;;;2.70;99.90;;;;;;4994746;28;20129;-52
2022/01/20 07:24:30;;;;;;;18.58;2.65;;;2.70;99.90;;;;;;4976281;28;20050;-52
2022/01/20 07:26:57;;;;;;;15.05;2.53;;;2.70;99.90;;;;;;4977046;28;20070;-53
2022/01/20 07:29:23;;;;;;;18.13;2.67;;;2.70;99.90;;;;;;4994753;28;20034;-51
2022/01/20 07:31:48;;;;;;;18.75;2.72;;;2.70;99.90;;;;;;4994424;28;20065;-52
2022/01/20 07:34:14;;;;;;;12.90;2.13;;;2.60;99.90;;;;;;4970899;28;20060;-52
2022/01/20 07:36:40;;;;;;;16.42;2.83;;;2.60;99.90;;;;;;4982889;28;20065;-52
2022/01/20 07:39:05;;;;;;;16.17;2.30;;;2.60;99.90;;;;;;4993116;28;20070;-52
2022/01/20 07:41:31;;;;;;;21.45;2.95;;;2.60;99.90;;;;;;4994260;28;20548;-52
2022/01/20 07:43:57;;;;;;;22.80;2.35;;;2.60;99.90;;;;;;4994144;28;20043;-52
2022/01/20 07:46:23;;;;;;;11.20;1.90;;;2.70;99.90;;;;;;4994215;28;20542;-52
2022/01/20 07:48:48;;;;;;;19.33;2.70;;;2.70;99.90;;;;;;4985526;28;20569;-49
2022/01/20 07:51:14;;;;;;;17.92;3.45;;;2.70;99.90;;;;;;4962202;28;20065;-48
2022/01/20 07:53:40;;;;;;;14.05;2.38;;;2.70;99.90;;;;;;4981371;28;20034;-50
2022/01/20 07:56:06;;;;;;;18.38;2.65;;;2.80;99.90;;;;;;4955916;28;20073;-52
2022/01/20 07:58:34;;;;;;;13.57;2.63;;;2.70;99.90;;;;;;4993554;28;20078;-52
2022/01/20 08:01:01;;;;;;;14.63;2.60;;;2.70;99.90;;;;;;4994062;28;20046;-52
2022/01/20 08:03:26;;;;;;;14.65;2.22;;;2.70;99.90;;;;;;4991931;28;20042;-50
2022/01/20 08:05:52;;;;;;;22.98;2.92;;;2.70;99.90;;;;;;4994120;28;20073;-50
2022/01/20 08:08:18;;;;;;;12.65;2.25;;;2.80;99.90;;;;;;4993978;28;20038;-52
2022/01/20 08:10:43;;;;;;;12.40;2.35;;;2.80;99.90;;;;;;4976400;28;20038;-52
2022/01/20 08:13:09;;;;;;;14.68;2.28;;;2.80;99.90;;;;;;4976118;28;20125;-52
2022/01/20 08:15:35;;;;;;;15.18;2.70;;;2.80;99.90;;;;;;4993430;28;20129;-52
2022/01/20 08:18:00;;;;;;;13.80;2.85;;;2.80;99.90;;;;;;4975312;28;20078;-47
2022/01/20 08:20:26;;;;;;;16.52;2.75;;;2.80;99.90;;;;;;4976261;28;20045;-49
2022/01/20 08:22:52;;;;;;;16.42;2.42;;;2.80;99.90;;;;;;4975719;28;20042;-48
2022/01/20 08:25:19;;;;;;;14.80;2.33;;;2.80;99.90;;;;;;4993824;28;20049;-51
2022/01/20 08:27:46;;;;;;;16.15;2.67;;;2.80;99.90;;;;;;4976157;28;20038;-52
2022/01/20 08:30:15;;;;;;;14.52;2.60;;;2.90;99.90;;;;;;4988979;28;20039;-51
2022/01/20 08:32:41;;;;;;;14.13;2.40;;;2.90;99.90;;;;;;4978367;28;20041;-49
2022/01/20 08:35:09;;;;;;;12.05;2.35;;;2.90;99.90;;;;;;4976305;28;20049;-50
2022/01/20 08:37:45;;;;;;;15.75;2.30;;;2.90;99.90;;;;;;5004625;28;20509;-52
2022/01/20 08:40:13;;;;;;;11.82;2.67;;;2.90;99.90;;;;;;5006011;28;20541;-52
2022/01/20 08:42:43;;;;;;;22.88;2.75;;;3.00;99.90;;;;;;5004621;28;20103;-52
2022/01/20 08:45:12;;;;;;;11.13;2.00;;;3.00;99.90;;;;;;4993815;28;20046;-50
2022/01/20 08:47:38;;;;;;;16.23;2.45;;;3.00;99.90;;;;;;4985421;28;20026;-51
2022/01/20 08:50:05;;;;;;;14.57;2.67;;;3.10;99.90;;;;;;4982755;28;20114;-52
2022/01/20 08:52:31;;;;;;;20.60;3.00;;;3.10;99.90;;;;;;4981178;28;20118;-52
2022/01/20 08:54:58;;;;;;;13.50;2.50;;;3.20;99.90;;;;;;4980865;28;20043;-53
2022/01/20 08:57:24;;;;;;;14.23;2.25;;;3.20;99.90;;;;;;4978534;28;20118;-50
2022/01/20 08:59:50;;;;;;;12.82;3.30;;;3.30;99.90;;;;;;4983718;28;20045;-52
2022/01/20 09:02:18;;;;;;;19.23;2.70;;;3.30;99.90;;;;;;4979812;28;20034;-49
2022/01/20 09:04:43;;;;;;;15.45;2.60;;;3.30;99.90;;;;;;4982347;28;20042;-51
2022/01/20 09:07:09;;;;;;;17.38;3.00;;;3.30;99.90;;;;;;4960499;28;20116;-48
2022/01/20 09:09:41;;;;;;;14.02;2.50;;;3.40;99.90;;;;;;4980486;28;20406;-52
2022/01/20 09:17:25;;;;;;;20.15;2.65;;;3.50;99.90;;;;;;4979478;28;20089;-49
2022/01/20 09:19:51;;;;;;;18.80;2.92;;;3.50;99.90;;;;;;4983552;28;20047;-52
2022/01/20 09:22:17;;;;;;;19.73;2.95;;;3.50;99.90;;;;;;4941352;28;20583;-49
2022/01/20 09:24:44;;;;;;;16.20;2.95;;;3.50;99.90;;;;;;4982857;28;20069;-51
2022/01/20 09:27:11;;;;;;;21.73;3.17;;;3.60;99.90;;;;;;4941853;28;20094;-52
2022/01/20 09:29:36;;;;;;;21.08;2.40;;;3.60;99.90;;;;;;4977444;28;20039;-49
2022/01/20 09:32:04;;;;;;;22.20;2.72;;;3.60;99.90;;;;;;4983035;28;20035;-52
2022/01/20 09:34:30;;;;;;;19.48;3.80;;;3.60;99.90;;;;;;4958763;28;20035;-52
2022/01/20 09:36:56;;;;;;;12.95;2.83;;;3.70;99.90;;;;;;4980247;28;20450;-52
2022/01/20 09:39:21;;;;;;;20.75;3.90;;;3.70;99.90;;;;;;4978000;28;20498;-53
2022/01/20 09:41:47;;;;;;;18.42;3.67;;;3.70;99.90;;;;;;4982044;28;20108;-52
2022/01/20 09:44:13;;;;;;;16.15;2.45;;;3.70;99.90;;;;;;4976071;28;20046;-53
2022/01/20 09:46:39;;;;;;;17.00;3.72;;;3.80;99.90;;;;;;4976042;28;20038;-52
2022/01/20 09:49:05;;;;;;;16.00;2.60;;;3.90;99.90;;;;;;4974792;28;20035;-53
2022/01/20 09:51:30;;;;;;;21.95;2.95;;;3.90;99.90;;;;;;4975823;28;20045;-53
2022/01/20 09:53:56;;;;;;;13.70;2.30;;;4.00;99.90;;;;;;4977948;28;20042;-53
2022/01/20 09:56:22;;;;;;;19.25;2.65;;;4.00;99.90;;;;;;4976331;28;20121;-51
2022/01/20 09:58:49;;;;;;;18.15;2.63;;;4.10;99.90;;;;;;4942348;28;20049;-52
2022/01/20 10:01:32;;;;;;;14.38;2.60;;;4.10;99.90;;;;;;4970763;28;20030;-54
2022/01/20 10:03:57;;;;;;;18.70;2.80;;;4.20;99.90;;;;;;4992932;28;20106;-53
2022/01/20 10:06:23;;;;;;;16.75;2.72;;;4.20;99.90;;;;;;4990696;28;20117;-51
2022/01/20 10:08:58;;;;;;;10.27;2.40;;;4.30;99.90;;;;;;4993159;28;20042;-50
2022/01/20 10:11:24;;;;;;;16.60;2.75;;;4.30;99.90;;;;;;4993326;28;20045;-53
2022/01/20 10:13:50;;;;;;;14.63;2.55;;;4.30;99.90;;;;;;4993185;28;20401;-51
2022/01/20 10:16:17;;;;;;;14.82;2.38;;;4.30;99.90;;;;;;4959192;28;20571;-53
2022/01/20 10:18:50;;;;;;;12.52;2.28;;;4.30;99.90;;;;;;4975957;28;20414;-54
2022/01/20 10:21:17;;;;;;;12.05;2.50;;;4.40;99.90;;;;;;4992942;28;20117;-54
2022/01/20 10:23:48;;;;;;;16.80;2.45;;;4.50;99.90;;;;;;4993440;28;20096;-54
2022/01/20 10:26:22;;;;;;;14.18;2.53;;;4.50;99.90;;;;;;4992562;28;20046;-52
2022/01/20 10:29:00;;;;;;;10.93;1.98;;;4.50;99.90;;;;;;4993149;28;20034;-54
2022/01/20 10:31:35;;;;;;;13.25;2.30;;;4.60;99.90;;;;;;4944075;28;20073;-53
2022/01/20 10:34:01;;;;;;;16.48;3.20;;;4.70;99.90;;;;;;4959186;28;20169;-52
2022/01/20 10:36:27;;;;;;;20.30;2.85;;;4.70;99.90;;;;;;4987817;28;20399;-53
2022/01/20 10:38:55;;;;;;;10.85;2.25;;;4.70;99.90;;;;;;4979512;28;20038;-53
2022/01/20 10:41:31;;;;;;;19.58;2.75;;;4.70;99.90;;;;;;4999198;28;20074;-54
2022/01/20 10:44:07;;;;;;;16.60;2.72;;;4.70;99.90;;;;;;5001247;28;20042;-50
2022/01/20 10:46:53;;;;;;;13.45;2.70;;;4.70;99.90;;;;;;4990319;28;20085;-52
2022/01/20 10:49:26;;;;;;;17.35;2.45;;;4.70;99.90;;;;;;4961329;28;20487;-49
2022/01/20 10:51:55;;;;;;;;;;;4.70;99.90;;;;;;4987567;28;20084;-56
2022/01/20 10:54:21;;;;;;;11.88;2.17;;;4.80;99.90;;;;;;4958081;28;19928;-53
2022/01/20 10:56:57;;;;;;;13.98;2.80;;;4.90;99.90;;;;;;4974331;28;20120;-52
2022/01/20 10:59:24;;;;;;;10.75;2.20;;;5.00;99.90;;;;;;4962196;28;20038;-54
2022/01/20 11:01:58;;;;;;;16.50;2.08;;;5.00;99.90;;;;;;5000310;28;20112;-53
2022/01/20 11:04:23;;;;;;;14.75;2.30;;;5.00;98.60;;;;;;5000573;28;20391;-51
2022/01/20 11:06:54;;;;;;;11.15;2.08;;;4.70;99.90;;;;;;5006688;28;20026;-54
2022/01/20 11:09:21;;;;;;;7.97;2.03;;;4.40;99.90;;;;;;4996410;28;20096;-53
2022/01/20 11:11:48;;;;;;;14.30;1.90;;;4.10;99.90;;;;;;4995295;28;20041;-54
2022/01/20 11:14:14;;;;;;;8.43;1.55;;;4.00;99.90;;;;;;5012165;28;20120;-53
2022/01/20 11:16:40;;;;;;;9.02;1.90;;;3.90;99.90;;;;;;4996108;28;20038;-52
2022/01/20 11:19:17;;;;;;;9.00;1.60;;;3.80;99.90;;;;;;5004520;28;20035;-54
2022/01/20 11:21:44;;;;;;;12.80;2.03;;;3.90;99.90;;;;;;5017400;28;20041;-53
2022/01/20 11:24:26;;;;;;;10.13;1.90;;;3.90;99.90;;;;;;4989312;28;20046;-54
2022/01/20 11:26:54;;;;;;;9.88;1.95;;;4.00;99.90;;;;;;4987898;28;20046;-50
2022/01/20 11:29:27;;;;;;;13.15;2.30;;;4.10;99.90;;;;;;4998543;28;20045;-51
2022/01/20 11:31:53;;;;;;;16.35;2.55;;;4.10;99.90;;;;;;4998301;28;20034;-51
2022/01/20 11:34:20;;;;;;;11.32;1.88;;;4.20;99.90;;;;;;5013814;28;20049;-54
2022/01/20 11:36:47;;;;;;;8.15;1.30;;;4.20;99.90;;;;;;4967824;28;20034;-51
2022/01/20 11:39:17;;;;;;;19.80;2.50;;;4.20;99.90;;;;;;4992056;28;20069;-52
2022/01/20 11:41:47;;;;;;;15.68;2.30;;;4.10;99.90;;;;;;4977535;28;20049;-50
2022/01/20 11:44:16;;;;;;;14.57;2.88;;;3.90;99.90;;;;;;4994947;28;20368;-53
2022/01/20 11:46:44;;;;;;;10.30;1.88;;;3.80;99.90;;;;;;4995001;28;20034;-53
2022/01/20 11:49:12;;;;;;;10.57;2.22;;;3.70;99.90;;;;;;4977578;28;20108;-51
2022/01/20 11:51:57;;;;;;;12.73;2.33;;;3.70;99.90;;;;;;4994942;28;20117;-52
2022/01/20 11:54:27;;;;;;;12.88;2.40;;;3.70;99.90;;;;;;4990883;28;20501;-49
2022/01/20 11:57:04;;;;;;;15.88;2.70;;;3.80;99.90;;;;;;4984799;28;20031;-53
2022/01/20 11:59:44;;;;;;;9.80;1.98;;;3.80;99.90;;;;;;4991331;28;20038;-54
2022/01/20 12:02:22;;;;;;;17.00;2.97;;;4.00;99.90;;;;;;4987578;28;20046;-50
2022/01/20 12:04:51;;;;;;;12.27;2.83;;;4.10;99.90;;;;;;4983559;28;20049;-53
2022/01/20 12:07:28;;;;;;;15.23;2.05;;;4.20;99.90;;;;;;4988046;28;20045;-52
2022/01/20 12:10:10;;;;;;;15.63;2.28;;;4.40;99.90;;;;;;4984060;28;20038;-53
2022/01/20 12:12:38;;;;;;;14.07;2.78;;;4.50;99.90;;;;;;4983372;28;20035;-53
2022/01/20 12:15:14;;;;;;;11.85;2.00;;;4.70;99.90;;;;;;4983998;28;20456;-54
2022/01/20 12:17:47;;;;;;;15.57;3.15;;;4.70;99.90;;;;;;4982661;28;20046;-50
2022/01/20 12:23:47;;;;;;;14.35;2.50;;;4.50;99.90;;;;;;4960973;28;20077;-52
2022/01/20 12:26:12;;;;;;;16.02;4.25;;;4.50;99.90;;;;;;4981152;28;20532;-52
2022/01/20 12:28:38;;;;;;;12.25;2.05;;;4.40;99.90;;;;;;4980459;28;20056;-52
2022/01/20 12:31:06;;;;;;;10.48;2.10;;;4.40;99.90;;;;;;4977695;28;20187;-51
2022/01/20 12:33:33;;;;;;;9.77;1.98;;;4.40;99.90;;;;;;4962197;28;20058;-49
2022/01/20 12:36:04;;;;;;;14.85;2.50;;;4.40;99.90;;;;;;4968216;28;20172;-52
2022/01/20 12:38:35;;;;;;;11.32;1.92;;;4.40;99.90;;;;;;4985206;28;20047;-52
2022/01/20 12:41:11;;;;;;;15.63;2.58;;;4.40;99.90;;;;;;4986707;28;20134;-52
2022/01/20 12:43:53;;;;;;;18.27;2.40;;;4.50;99.90;;;;;;4988950;28;20046;-49
2022/01/20 12:46:24;;;;;;;13.07;2.75;;;4.50;99.90;;;;;;4956738;28;20046;-50
2022/01/20 12:49:00;;;;;;;11.80;2.15;;;4.50;99.90;;;;;;4981038;28;20585;-52
2022/01/20 12:51:42;;;;;;;12.40;2.08;;;4.50;99.90;;;;;;4981447;28;20185;-50
2022/01/20 12:54:28;;;;;;;13.27;2.10;;;4.60;99.90;;;;;;4979308;28;20553;-50
2022/01/20 12:56:56;;;;;;;16.92;2.67;;;4.60;99.90;;;;;;4964121;28;20355;-52
2022/01/20 12:59:25;;;;;;;15.52;2.95;;;4.70;99.90;;;;;;4950098;28;20081;-52
2022/01/20 13:01:53;;;;;;;17.73;2.78;;;4.80;99.90;;;;;;4981838;28;20057;-52
2022/01/20 13:04:22;;;;;;;21.65;3.55;;;4.80;99.90;;;;;;4981319;28;20046;-52
2022/01/20 13:07:09;;;;;;;13.60;2.90;;;4.90;99.90;;;;;;4983422;28;20043;-52
2022/01/20 13:09:53;;;;;;;21.73;2.97;;;5.00;99.90;;;;;;4977928;28;20410;-52
2022/01/20 13:12:51;;;;;;;18.88;2.33;;;5.10;99.90;;;;;;4983238;28;20453;-52
2022/01/20 13:15:16;;;;;;;13.45;2.70;;;5.10;99.90;;;;;;4979293;28;20492;-52
2022/01/20 13:17:42;;;;;;;18.05;2.83;;;5.10;99.90;;;;;;5003712;23;20149;-50
2022/01/20 13:20:15;;;;;;;19.45;2.45;;;5.00;99.90;;;;;;5008295;28;20072;-53
2022/01/20 13:22:55;;;;;;;11.85;2.25;;;4.90;98.70;;;;;;5006086;28;20046;-52
2022/01/20 13:25:24;;;;;;;14.80;2.45;;;4.80;98.80;;;;;;5006400;28;20401;-55
2022/01/20 13:27:59;;;;;;;18.42;2.65;;;4.70;97.60;;;;;;5010919;28;20045;-50
2022/01/20 13:30:36;;;;;;;17.33;2.15;;;4.70;98.40;;;;;;5012053;28;20045;-50
2022/01/20 13:33:03;;;;;;;13.30;2.80;;;4.70;98.50;;;;;;5008209;28;20037;-53
2022/01/20 13:35:40;;;;;;;12.93;2.30;;;4.60;99.70;;;;;;5010738;28;20045;-51
2022/01/20 13:38:07;;;;;;;18.92;2.90;;;4.60;99.90;;;;;;5013323;28;20408;-52
2022/01/20 13:40:34;;;;;;;15.70;3.03;;;4.70;99.90;;;;;;5010423;28;20409;-52
2022/01/20 13:45:56;;;;;;;17.00;2.60;;;4.70;99.90;;;;;;5013186;28;20048;-53
2022/01/20 13:48:27;;;;;;;15.95;2.85;;;4.70;99.90;;;;;;5011447;28;20042;-51
2022/01/20 13:50:58;;;;;;;12.65;2.85;;;4.70;99.90;;;;;;5009092;28;20092;-51
2022/01/20 13:53:27;;;;;;;21.23;3.00;;;4.80;99.90;;;;;;5012394;28;20124;-51
2022/01/20 13:55:56;;;;;;;17.05;2.83;;;4.80;99.90;;;;;;5010856;28;20069;-49
2022/01/20 13:58:30;;;;;;;16.73;2.03;;;4.80;99.90;;;;;;5011605;28;20040;-49
2022/01/20 14:00:59;;;;;;;15.90;2.10;;;4.80;99.90;;;;;;5009382;28;20405;-52